Terminal Aerodrome Forecast
Issued by NWS

Home | Current Version | Previous Version | Text Only | Print | Product List | Glossary On
Versions: 1 2 3 4 5 6 7 8 9 10 11 12 13 14 15 16 17 18 19 20
000
FTUS45 KBOU 021728
TAFAPA
TAF
KAPA 021728Z 0218/0318 06007KT P6SM SCT035 BKN050 OVC090
     FM022100 13008KT P6SM VCSH BKN050 OVC090
      TEMPO 0222/0302 -SN BKN030
     FM030200 16008KT P6SM SCT050 BKN090
     FM030600 18007KT P6SM FEW090 SCT200
     FM031300 23005KT P6SM SCT150
     FM031700 19005KT P6SM SCT150=

USA.gov is the U.S. government's official web portal to all federal, state and local government web resources and services.